sensor_id;sensor_type;location;lat;lon;timestamp;pressure;altitude;pressure_sealevel;temperature;humidity
25759;BME280;13604;52.496;13.456;2023-02-23T00:01:26;101031.81;;;2.72;100.00
25759;BME280;13604;52.496;13.456;2023-02-23T00:03:58;101009.88;;;2.55;100.00
25759;BME280;13604;52.496;13.456;2023-02-23T00:06:25;101033.13;;;2.67;100.00
25759;BME280;13604;52.496;13.456;2023-02-23T00:08:51;101024.91;;;2.61;100.00
25759;BME280;13604;52.496;13.456;2023-02-23T00:11:17;101025.66;;;2.70;100.00
25759;BME280;13604;52.496;13.456;2023-02-23T00:13:44;101023.59;;;2.76;100.00
25759;BME280;13604;52.496;13.456;2023-02-23T00:16:15;101022.78;;;2.78;100.00
25759;BME280;13604;52.496;13.456;2023-02-23T00:18:54;101036.06;;;2.72;100.00
25759;BME280;13604;52.496;13.456;2023-02-23T00:21:21;101029.78;;;2.68;100.00
25759;BME280;13604;52.496;13.456;2023-02-23T00:23:52;101027.09;;;2.67;100.00
25759;BME280;13604;52.496;13.456;2023-02-23T00:26:19;100997.78;;;2.54;100.00
25759;BME280;13604;52.496;13.456;2023-02-23T00:28:48;100998.84;;;2.46;100.00
25759;BME280;13604;52.496;13.456;2023-02-23T00:31:17;101005.13;;;2.50;100.00
25759;BME280;13604;52.496;13.456;2023-02-23T00:33:43;101013.22;;;2.54;100.00
25759;BME280;13604;52.496;13.456;2023-02-23T00:36:13;101001.28;;;2.55;100.00
25759;BME280;13604;52.496;13.456;2023-02-23T00:38:40;101009.34;;;2.60;100.00
25759;BME280;13604;52.496;13.456;2023-02-23T00:41:11;101011.16;;;2.61;100.00
25759;BME280;13604;52.496;13.456;2023-02-23T00:43:39;101012.72;;;2.58;100.00
25759;BME280;13604;52.496;13.456;2023-02-23T00:46:18;101007.56;;;2.48;100.00
25759;BME280;13604;52.496;13.456;2023-02-23T00:48:46;101017.06;;;2.60;100.00
25759;BME280;13604;52.496;13.456;2023-02-23T00:51:12;101010.00;;;2.57;100.00
25759;BME280;13604;52.496;13.456;2023-02-23T00:53:38;101015.41;;;2.60;100.00
25759;BME280;13604;52.496;13.456;2023-02-23T00:56:04;101009.63;;;2.52;100.00
25759;BME280;13604;52.496;13.456;2023-02-23T00:58:30;101014.25;;;2.56;100.00
25759;BME280;13604;52.496;13.456;2023-02-23T01:00:55;100999.84;;;2.48;100.00
25759;BME280;13604;52.496;13.456;2023-02-23T01:03:24;101012.59;;;2.57;100.00
25759;BME280;13604;52.496;13.456;2023-02-23T01:05:49;100976.84;;;2.50;100.00
25759;BME280;13604;52.496;13.456;2023-02-23T01:08:16;101008.03;;;2.65;100.00
25759;BME280;13604;52.496;13.456;2023-02-23T01:10:42;101008.59;;;2.61;100.00
25759;BME280;13604;52.496;13.456;2023-02-23T01:13:09;100983.81;;;2.51;100.00
25759;BME280;13604;52.496;13.456;2023-02-23T01:15:40;101000.63;;;2.57;100.00
25759;BME280;13604;52.496;13.456;2023-02-23T01:18:07;101011.16;;;2.61;100.00
25759;BME280;13604;52.496;13.456;2023-02-23T01:20:33;100996.53;;;2.49;100.00
25759;BME280;13604;52.496;13.456;2023-02-23T01:23:00;101022.38;;;2.51;100.00
25759;BME280;13604;52.496;13.456;2023-02-23T01:25:26;100994.09;;;2.51;100.00
25759;BME280;13604;52.496;13.456;2023-02-23T01:27:53;101005.13;;;2.60;100.00
25759;BME280;13604;52.496;13.456;2023-02-23T01:30:18;100998.03;;;2.57;100.00
25759;BME280;13604;52.496;13.456;2023-02-23T01:32:44;100996.38;;;2.58;100.00
25759;BME280;13604;52.496;13.456;2023-02-23T01:35:10;100987.53;;;2.44;100.00
25759;BME280;13604;52.496;13.456;2023-02-23T01:37:37;100999.47;;;2.54;100.00
25759;BME280;13604;52.496;13.456;2023-02-23T01:40:14;100980.72;;;2.45;100.00
25759;BME280;13604;52.496;13.456;2023-02-23T01:42:43;100989.19;;;2.54;100.00
25759;BME280;13604;52.496;13.456;2023-02-23T01:45:26;100993.19;;;2.50;100.00
25759;BME280;13604;52.496;13.456;2023-02-23T01:47:55;100992.44;;;2.41;100.00
25759;BME280;13604;52.496;13.456;2023-02-23T01:50:23;100989.34;;;2.45;100.00
25759;BME280;13604;52.496;13.456;2023-02-23T01:52:50;100978.81;;;2.42;100.00
25759;BME280;13604;52.496;13.456;2023-02-23T01:55:17;100991.94;;;2.45;100.00
25759;BME280;13604;52.496;13.456;2023-02-23T01:57:50;100964.69;;;2.27;100.00
25759;BME280;13604;52.496;13.456;2023-02-23T02:00:17;100957.66;;;2.24;100.00
25759;BME280;13604;52.496;13.456;2023-02-23T02:02:44;100969.16;;;2.39;100.00
25759;BME280;13604;52.496;13.456;2023-02-23T02:05:14;100937.84;;;2.23;100.00
25759;BME280;13604;52.496;13.456;2023-02-23T02:07:45;100974.56;;;2.43;100.00
25759;BME280;13604;52.496;13.456;2023-02-23T02:10:12;100951.09;;;2.28;100.00
25759;BME280;13604;52.496;13.456;2023-02-23T02:12:39;100961.34;;;2.38;100.00
25759;BME280;13604;52.496;13.456;2023-02-23T02:15:06;100939.91;;;2.27;100.00
25759;BME280;13604;52.496;13.456;2023-02-23T02:18:02;100961.47;;;2.39;100.00
25759;BME280;13604;52.496;13.456;2023-02-23T02:20:54;100958.13;;;2.41;100.00
25759;BME280;13604;52.496;13.456;2023-02-23T02:26:31;100928.00;;;2.17;100.00
25759;BME280;13604;52.496;13.456;2023-02-23T02:31:59;100940.81;;;2.28;100.00
25759;BME280;13604;52.496;13.456;2023-02-23T02:40:10;100944.28;;;2.18;100.00
25759;BME280;13604;52.496;13.456;2023-02-23T02:42:52;100935.31;;;2.13;100.00
25759;BME280;13604;52.496;13.456;2023-02-23T02:45:27;100923.91;;;2.09;100.00
25759;BME280;13604;52.496;13.456;2023-02-23T02:48:10;100942.63;;;2.18;100.00
25759;BME280;13604;52.496;13.456;2023-02-23T02:50:44;100919.41;;;1.96;100.00
25759;BME280;13604;52.496;13.456;2023-02-23T02:53:17;100940.84;;;2.07;100.00
25759;BME280;13604;52.496;13.456;2023-02-23T02:55:46;100933.03;;;2.06;100.00
25759;BME280;13604;52.496;13.456;2023-02-23T02:58:12;100938.66;;;2.12;100.00
25759;BME280;13604;52.496;13.456;2023-02-23T03:00:40;100920.44;;;1.98;100.00
25759;BME280;13604;52.496;13.456;2023-02-23T03:03:36;100930.94;;;2.12;100.00
25759;BME280;13604;52.496;13.456;2023-02-23T03:06:24;100937.50;;;2.08;100.00
25759;BME280;13604;52.496;13.456;2023-02-23T03:09:30;100914.66;;;2.01;100.00
25759;BME280;13604;52.496;13.456;2023-02-23T03:12:33;100900.03;;;1.90;100.00
25759;BME280;13604;52.496;13.456;2023-02-23T03:15:57;100901.72;;;1.89;100.00
25759;BME280;13604;52.496;13.456;2023-02-23T03:22:21;100908.00;;;1.93;100.00
25759;BME280;13604;52.496;13.456;2023-02-23T03:25:27;100897.25;;;1.76;100.00
25759;BME280;13604;52.496;13.456;2023-02-23T03:28:25;100911.59;;;1.84;100.00
25759;BME280;13604;52.496;13.456;2023-02-23T03:31:15;100916.22;;;1.89;100.00
25759;BME280;13604;52.496;13.456;2023-02-23T03:34:16;100905.06;;;1.78;100.00
25759;BME280;13604;52.496;13.456;2023-02-23T03:37:09;100887.88;;;1.67;100.00
25759;BME280;13604;52.496;13.456;2023-02-23T03:40:20;100915.06;;;1.85;100.00
25759;BME280;13604;52.496;13.456;2023-02-23T03:43:10;100904.03;;;1.65;100.00
25759;BME280;13604;52.496;13.456;2023-02-23T03:45:56;100892.75;;;1.63;100.00
25759;BME280;13604;52.496;13.456;2023-02-23T03:48:45;100904.16;;;1.67;100.00
25759;BME280;13604;52.496;13.456;2023-02-23T03:51:33;100909.44;;;1.69;100.00
25759;BME280;13604;52.496;13.456;2023-02-23T03:54:29;100903.38;;;1.58;100.00
25759;BME280;13604;52.496;13.456;2023-02-23T03:57:18;100899.28;;;1.50;100.00
25759;BME280;13604;52.496;13.456;2023-02-23T04:00:07;100900.59;;;1.55;100.00
25759;BME280;13604;52.496;13.456;2023-02-23T04:02:52;100893.66;;;1.43;100.00
25759;BME280;13604;52.496;13.456;2023-02-23T04:05:38;100865.06;;;1.28;100.00
25759;BME280;13604;52.496;13.456;2023-02-23T04:08:28;100886.72;;;1.32;100.00
25759;BME280;13604;52.496;13.456;2023-02-23T04:11:18;100878.38;;;1.35;100.00
25759;BME280;13604;52.496;13.456;2023-02-23T04:14:14;100880.03;;;1.34;100.00
25759;BME280;13604;52.496;13.456;2023-02-23T04:16:41;100896.34;;;1.45;100.00
25759;BME280;13604;52.496;13.456;2023-02-23T04:19:07;100865.41;;;1.23;100.00
25759;BME280;13604;52.496;13.456;2023-02-23T04:21:32;100890.56;;;1.37;100.00
25759;BME280;13604;52.496;13.456;2023-02-23T04:23:58;100897.50;;;1.38;100.00
25759;BME280;13604;52.496;13.456;2023-02-23T04:26:26;100885.81;;;1.21;100.00
25759;BME280;13604;52.496;13.456;2023-02-23T04:28:51;100871.97;;;1.19;100.00
25759;BME280;13604;52.496;13.456;2023-02-23T04:31:17;100890.56;;;1.27;100.00
25759;BME280;13604;52.496;13.456;2023-02-23T04:33:42;100897.75;;;1.31;100.00
25759;BME280;13604;52.496;13.456;2023-02-23T04:36:07;100889.66;;;1.26;100.00
25759;BME280;13604;52.496;13.456;2023-02-23T04:38:33;100893.63;;;1.23;100.00
25759;BME280;13604;52.496;13.456;2023-02-23T04:40:58;100881.34;;;1.19;100.00
25759;BME280;13604;52.496;13.456;2023-02-23T04:43:23;100886.59;;;1.20;100.00
25759;BME280;13604;52.496;13.456;2023-02-23T04:45:49;100863.72;;;1.03;100.00
25759;BME280;13604;52.496;13.456;2023-02-23T04:48:14;100859.63;;;1.05;100.00
25759;BME280;13604;52.496;13.456;2023-02-23T04:50:39;100831.81;;;0.89;100.00
25759;BME280;13604;52.496;13.456;2023-02-23T04:53:05;100868.72;;;1.01;100.00
25759;BME280;13604;52.496;13.456;2023-02-23T04:55:30;100853.97;;;0.88;100.00
25759;BME280;13604;52.496;13.456;2023-02-23T04:57:58;100879.00;;;1.01;100.00
25759;BME280;13604;52.496;13.456;2023-02-23T05:00:24;100878.38;;;1.04;100.00
25759;BME280;13604;52.496;13.456;2023-02-23T05:02:50;100868.84;;;0.93;100.00
25759;BME280;13604;52.496;13.456;2023-02-23T05:05:15;100855.63;;;0.88;100.00
25759;BME280;13604;52.496;13.456;2023-02-23T05:07:40;100865.28;;;0.90;100.00
25759;BME280;13604;52.496;13.456;2023-02-23T05:10:06;100883.09;;;0.99;100.00
25759;BME280;13604;52.496;13.456;2023-02-23T05:12:31;100861.53;;;0.87;100.00
25759;BME280;13604;52.496;13.456;2023-02-23T05:14:57;100865.91;;;0.88;100.00
25759;BME280;13604;52.496;13.456;2023-02-23T05:17:23;100877.44;;;0.93;100.00
25759;BME280;13604;52.496;13.456;2023-02-23T05:19:48;100877.16;;;0.90;100.00
25759;BME280;13604;52.496;13.456;2023-02-23T05:22:14;100880.00;;;0.93;100.00
25759;BME280;13604;52.496;13.456;2023-02-23T05:24:39;100850.63;;;0.79;100.00
25759;BME280;13604;52.496;13.456;2023-02-23T05:27:06;100861.50;;;0.77;100.00
25759;BME280;13604;52.496;13.456;2023-02-23T05:29:32;100872.03;;;0.80;100.00
25759;BME280;13604;52.496;13.456;2023-02-23T05:31:57;100854.06;;;0.69;100.00
25759;BME280;13604;52.496;13.456;2023-02-23T05:34:23;100854.81;;;0.68;100.00
25759;BME280;13604;52.496;13.456;2023-02-23T05:36:48;100851.72;;;0.62;100.00
25759;BME280;13604;52.496;13.456;2023-02-23T05:39:13;100855.81;;;0.60;100.00
25759;BME280;13604;52.496;13.456;2023-02-23T05:41:39;100874.03;;;0.63;100.00
25759;BME280;13604;52.496;13.456;2023-02-23T05:44:04;100877.28;;;0.71;100.00
25759;BME280;13604;52.496;13.456;2023-02-23T05:46:29;100855.81;;;0.50;100.00
25759;BME280;13604;52.496;13.456;2023-02-23T05:48:57;100886.84;;;0.63;100.00
25759;BME280;13604;52.496;13.456;2023-02-23T05:51:23;100885.56;;;0.58;100.00
25759;BME280;13604;52.496;13.456;2023-02-23T05:53:49;100878.22;;;0.52;100.00
25759;BME280;13604;52.496;13.456;2023-02-23T05:56:15;100894.25;;;0.50;100.00
25759;BME280;13604;52.496;13.456;2023-02-23T05:58:45;100897.09;;;0.63;100.00
25759;BME280;13604;52.496;13.456;2023-02-23T06:01:11;100904.69;;;0.72;100.00
25759;BME280;13604;52.496;13.456;2023-02-23T06:03:36;100892.25;;;0.66;100.00
25759;BME280;13604;52.496;13.456;2023-02-23T06:06:01;100879.56;;;0.68;100.00
25759;BME280;13604;52.496;13.456;2023-02-23T06:08:27;100889.72;;;0.77;100.00
25759;BME280;13604;52.496;13.456;2023-02-23T06:10:52;100895.59;;;0.76;100.00
25759;BME280;13604;52.496;13.456;2023-02-23T06:13:18;100906.66;;;0.85;100.00
25759;BME280;13604;52.496;13.456;2023-02-23T06:15:43;100883.97;;;0.79;100.00
25759;BME280;13604;52.496;13.456;2023-02-23T06:18:09;100885.75;;;0.80;100.00
25759;BME280;13604;52.496;13.456;2023-02-23T06:20:35;100917.06;;;0.97;100.00
25759;BME280;13604;52.496;13.456;2023-02-23T06:23:01;100895.25;;;0.91;100.00
25759;BME280;13604;52.496;13.456;2023-02-23T06:25:26;100889.84;;;0.88;100.00
25759;BME280;13604;52.496;13.456;2023-02-23T06:27:52;100900.16;;;0.99;100.00
25759;BME280;13604;52.496;13.456;2023-02-23T06:30:17;100904.63;;;1.01;100.00
25759;BME280;13604;52.496;13.456;2023-02-23T06:32:43;100906.06;;;1.08;100.00
25759;BME280;13604;52.496;13.456;2023-02-23T06:35:08;100905.66;;;1.03;100.00
25759;BME280;13604;52.496;13.456;2023-02-23T06:37:34;100914.56;;;1.17;100.00
25759;BME280;13604;52.496;13.456;2023-02-23T06:40:00;100913.00;;;1.19;100.00
25759;BME280;13604;52.496;13.456;2023-02-23T06:42:26;100917.66;;;1.34;100.00
25759;BME280;13604;52.496;13.456;2023-02-23T06:44:51;100912.50;;;1.23;100.00
25759;BME280;13604;52.496;13.456;2023-02-23T06:47:16;100914.41;;;1.16;100.00
25759;BME280;13604;52.496;13.456;2023-02-23T06:49:42;100922.13;;;1.26;100.00
25759;BME280;13604;52.496;13.456;2023-02-23T06:52:08;100925.97;;;1.21;100.00
25759;BME280;13604;52.496;13.456;2023-02-23T06:54:34;100924.81;;;1.27;100.00
25759;BME280;13604;52.496;13.456;2023-02-23T06:56:59;100918.53;;;1.24;100.00
25759;BME280;13604;52.496;13.456;2023-02-23T06:59:24;100913.00;;;1.29;100.00
25759;BME280;13604;52.496;13.456;2023-02-23T07:01:50;100923.66;;;1.44;100.00
25759;BME280;13604;52.496;13.456;2023-02-23T07:04:15;100893.91;;;1.36;100.00
25759;BME280;13604;52.496;13.456;2023-02-23T07:06:40;100917.50;;;1.53;100.00
25759;BME280;13604;52.496;13.456;2023-02-23T07:09:06;100923.94;;;1.58;100.00
25759;BME280;13604;52.496;13.456;2023-02-23T07:11:31;100906.09;;;1.59;100.00
25759;BME280;13604;52.496;13.456;2023-02-23T07:13:57;100924.31;;;1.83;100.00
25759;BME280;13604;52.496;13.456;2023-02-23T07:16:23;100919.41;;;1.96;100.00
25759;BME280;13604;52.496;13.456;2023-02-23T07:18:49;100906.28;;;2.03;100.00
25759;BME280;13604;52.496;13.456;2023-02-23T07:21:14;100914.25;;;2.07;100.00
25759;BME280;13604;52.496;13.456;2023-02-23T07:23:39;100904.50;;;2.13;100.00
25759;BME280;13604;52.496;13.456;2023-02-23T07:26:04;100907.31;;;2.16;100.00
25759;BME280;13604;52.496;13.456;2023-02-23T07:28:30;100895.72;;;2.21;100.00
25759;BME280;13604;52.496;13.456;2023-02-23T07:30:56;100896.50;;;2.20;100.00
25759;BME280;13604;52.496;13.456;2023-02-23T07:33:22;100916.38;;;2.33;100.00
25759;BME280;13604;52.496;13.456;2023-02-23T07:35:48;100905.97;;;2.31;100.00
25759;BME280;13604;52.496;13.456;2023-02-23T07:38:13;100884.97;;;2.47;100.00
25759;BME280;13604;52.496;13.456;2023-02-23T07:40:39;100893.25;;;2.65;100.00
25759;BME280;13604;52.496;13.456;2023-02-23T07:43:04;100906.22;;;2.67;99.31
25759;BME280;13604;52.496;13.456;2023-02-23T07:45:29;100911.81;;;2.73;98.74
25759;BME280;13604;52.496;13.456;2023-02-23T07:47:55;100910.25;;;2.85;98.14
25759;BME280;13604;52.496;13.456;2023-02-23T07:50:20;100906.81;;;2.74;97.66
25759;BME280;13604;52.496;13.456;2023-02-23T07:52:45;100889.28;;;2.81;97.90
25759;BME280;13604;52.496;13.456;2023-02-23T07:55:11;100895.09;;;3.00;97.06
25759;BME280;13604;52.496;13.456;2023-02-23T07:57:36;100892.03;;;2.94;95.60
25759;BME280;13604;52.496;13.456;2023-02-23T08:00:03;100908.88;;;3.23;96.79
25759;BME280;13604;52.496;13.456;2023-02-23T08:02:28;100904.97;;;3.06;96.03
25759;BME280;13604;52.496;13.456;2023-02-23T08:04:54;100906.19;;;3.33;96.28
25759;BME280;13604;52.496;13.456;2023-02-23T08:07:21;100897.16;;;3.38;94.88
25759;BME280;13604;52.496;13.456;2023-02-23T08:09:47;100882.66;;;3.17;95.30
25759;BME280;13604;52.496;13.456;2023-02-23T08:12:12;100884.97;;;3.36;94.47
25759;BME280;13604;52.496;13.456;2023-02-23T08:14:39;100888.41;;;3.36;94.64
25759;BME280;13604;52.496;13.456;2023-02-23T08:17:04;100894.59;;;3.50;93.42
25759;BME280;13604;52.496;13.456;2023-02-23T08:19:29;100874.81;;;3.49;93.49
25759;BME280;13604;52.496;13.456;2023-02-23T08:21:55;100899.81;;;3.62;92.79
25759;BME280;13604;52.496;13.456;2023-02-23T08:24:21;100870.19;;;3.45;93.38
25759;BME280;13604;52.496;13.456;2023-02-23T08:26:46;100903.28;;;3.74;92.09
25759;BME280;13604;52.496;13.456;2023-02-23T08:29:14;100892.34;;;4.12;91.54
25759;BME280;13604;52.496;13.456;2023-02-23T08:31:39;100895.56;;;3.86;91.24
25759;BME280;13604;52.496;13.456;2023-02-23T08:34:04;100894.47;;;3.82;92.06
25759;BME280;13604;52.496;13.456;2023-02-23T08:36:29;100883.25;;;4.29;90.86
25759;BME280;13604;52.496;13.456;2023-02-23T08:38:55;100895.63;;;4.70;88.42
25759;BME280;13604;52.496;13.456;2023-02-23T08:41:20;100890.09;;;4.89;86.00
25759;BME280;13604;52.496;13.456;2023-02-23T08:43:46;100893.34;;;4.98;85.24
25759;BME280;13604;52.496;13.456;2023-02-23T08:46:12;100892.03;;;5.17;85.43
25759;BME280;13604;52.496;13.456;2023-02-23T08:48:38;100894.94;;;4.85;84.40
25759;BME280;13604;52.496;13.456;2023-02-23T08:51:05;100901.38;;;5.15;85.37
25759;BME280;13604;52.496;13.456;2023-02-23T08:53:31;100861.81;;;4.54;86.34
25759;BME280;13604;52.496;13.456;2023-02-23T08:56:01;100901.41;;;4.91;85.80
25759;BME280;13604;52.496;13.456;2023-02-23T08:58:28;100901.81;;;4.72;86.20
25759;BME280;13604;52.496;13.456;2023-02-23T09:00:54;100888.03;;;4.60;87.02
25759;BME280;13604;52.496;13.456;2023-02-23T09:03:21;100898.47;;;4.61;87.44
25759;BME280;13604;52.496;13.456;2023-02-23T09:05:46;100896.31;;;5.05;86.93
25759;BME280;13604;52.496;13.456;2023-02-23T09:08:13;100905.25;;;5.22;85.43
25759;BME280;13604;52.496;13.456;2023-02-23T09:10:39;100896.16;;;5.27;84.29
25759;BME280;13604;52.496;13.456;2023-02-23T09:13:04;100899.75;;;5.42;84.38
25759;BME280;13604;52.496;13.456;2023-02-23T09:15:30;100902.72;;;5.35;84.85
25759;BME280;13604;52.496;13.456;2023-02-23T09:18:01;100890.09;;;5.26;85.35
25759;BME280;13604;52.496;13.456;2023-02-23T09:20:27;100901.41;;;5.67;84.35
25759;BME280;13604;52.496;13.456;2023-02-23T09:22:52;100890.00;;;5.63;83.03
25759;BME280;13604;52.496;13.456;2023-02-23T09:25:19;100903.34;;;5.44;84.76
25759;BME280;13604;52.496;13.456;2023-02-23T09:27:47;100902.59;;;5.59;84.38
25759;BME280;13604;52.496;13.456;2023-02-23T09:30:14;100903.06;;;5.40;84.90
25759;BME280;13604;52.496;13.456;2023-02-23T09:32:43;100887.72;;;5.68;84.05
25759;BME280;13604;52.496;13.456;2023-02-23T09:35:09;100880.19;;;5.84;83.31
25759;BME280;13604;52.496;13.456;2023-02-23T09:37:34;100900.63;;;6.20;82.65
25759;BME280;13604;52.496;13.456;2023-02-23T09:39:59;100880.31;;;6.53;80.99
25759;BME280;13604;52.496;13.456;2023-02-23T09:42:43;100895.91;;;6.68;79.78
25759;BME280;13604;52.496;13.456;2023-02-23T09:45:23;100891.78;;;6.98;78.02
25759;BME280;13604;52.496;13.456;2023-02-23T09:47:57;100899.09;;;7.05;79.17
25759;BME280;13604;52.496;13.456;2023-02-23T09:50:27;100891.22;;;7.60;76.85
25759;BME280;13604;52.496;13.456;2023-02-23T09:53:02;100889.69;;;8.08;76.12
25759;BME280;13604;52.496;13.456;2023-02-23T09:55:30;100885.75;;;8.61;73.06
25759;BME280;13604;52.496;13.456;2023-02-23T09:58:05;100866.56;;;8.91;70.06
25759;BME280;13604;52.496;13.456;2023-02-23T10:00:36;100889.63;;;10.37;67.13
25759;BME280;13604;52.496;13.456;2023-02-23T10:05:41;100880.84;;;11.30;62.63
25759;BME280;13604;52.496;13.456;2023-02-23T10:08:18;100891.50;;;11.34;61.74
25759;BME280;13604;52.496;13.456;2023-02-23T10:10:51;100889.13;;;10.82;63.42
25759;BME280;13604;52.496;13.456;2023-02-23T10:13:28;100893.34;;;12.18;60.61
25759;BME280;13604;52.496;13.456;2023-02-23T10:16:20;100889.97;;;12.21;59.28
25759;BME280;13604;52.496;13.456;2023-02-23T10:19:01;100879.91;;;13.44;55.15
25759;BME280;13604;52.496;13.456;2023-02-23T10:21:33;100876.03;;;14.94;52.29
25759;BME280;13604;52.496;13.456;2023-02-23T10:24:21;100881.78;;;16.09;48.85
25759;BME280;13604;52.496;13.456;2023-02-23T10:26:55;100872.03;;;16.04;47.79
25759;BME280;13604;52.496;13.456;2023-02-23T10:29:26;100872.28;;;16.90;47.26
25759;BME280;13604;52.496;13.456;2023-02-23T10:32:01;100872.94;;;17.21;45.39
25759;BME280;13604;52.496;13.456;2023-02-23T10:34:30;100870.91;;;17.08;46.53
25759;BME280;13604;52.496;13.456;2023-02-23T10:37:03;100875.38;;;18.05;43.92
25759;BME280;13604;52.496;13.456;2023-02-23T10:39:30;100861.38;;;17.13;46.04
25759;BME280;13604;52.496;13.456;2023-02-23T10:41:59;100870.25;;;18.14;44.10
25759;BME280;13604;52.496;13.456;2023-02-23T10:44:27;100872.31;;;18.93;42.00
25759;BME280;13604;52.496;13.456;2023-02-23T10:47:10;100865.13;;;19.58;41.13
25759;BME280;13604;52.496;13.456;2023-02-23T10:49:42;100861.50;;;20.48;39.65
25759;BME280;13604;52.496;13.456;2023-02-23T10:52:13;100867.22;;;21.41;37.78
25759;BME280;13604;52.496;13.456;2023-02-23T10:54:46;100870.84;;;21.57;37.04
25759;BME280;13604;52.496;13.456;2023-02-23T10:57:19;100869.06;;;21.65;37.05
25759;BME280;13604;52.496;13.456;2023-02-23T11:00:03;100854.94;;;21.75;37.40
25759;BME280;13604;52.496;13.456;2023-02-23T11:02:30;100854.94;;;21.58;37.00
25759;BME280;13604;52.496;13.456;2023-02-23T11:04:58;100861.91;;;21.41;37.22
25759;BME280;13604;52.496;13.456;2023-02-23T11:07:26;100838.03;;;21.19;37.61
25759;BME280;13604;52.496;13.456;2023-02-23T11:12:42;100856.53;;;21.13;38.06
25759;BME280;13604;52.496;13.456;2023-02-23T11:15:25;100836.97;;;20.71;38.62
25759;BME280;13604;52.496;13.456;2023-02-23T11:17:55;100844.19;;;19.78;40.42
25759;BME280;13604;52.496;13.456;2023-02-23T11:20:29;100852.59;;;20.37;39.56
25759;BME280;13604;52.496;13.456;2023-02-23T11:22:57;100851.13;;;20.77;38.44
25759;BME280;13604;52.496;13.456;2023-02-23T11:25:30;100849.94;;;20.35;39.34
25759;BME280;13604;52.496;13.456;2023-02-23T11:27:56;100848.78;;;18.48;40.76
25759;BME280;13604;52.496;13.456;2023-02-23T11:30:27;100849.63;;;18.45;42.66
25759;BME280;13604;52.496;13.456;2023-02-23T11:32:59;100828.81;;;18.65;42.50
25759;BME280;13604;52.496;13.456;2023-02-23T11:35:36;100834.91;;;19.30;41.21
25759;BME280;13604;52.496;13.456;2023-02-23T11:38:23;100791.34;;;18.91;41.05
25759;BME280;13604;52.496;13.456;2023-02-23T11:41:17;100835.47;;;18.38;42.96
25759;BME280;13604;52.496;13.456;2023-02-23T11:43:50;100824.84;;;18.32;43.16
25759;BME280;13604;52.496;13.456;2023-02-23T11:46:18;100830.53;;;18.03;43.84
25759;BME280;13604;52.496;13.456;2023-02-23T11:48:52;100824.47;;;16.69;45.63
25759;BME280;13604;52.496;13.456;2023-02-23T11:51:32;100816.19;;;17.36;45.86
25759;BME280;13604;52.496;13.456;2023-02-23T11:53:58;100806.41;;;18.32;44.33
25759;BME280;13604;52.496;13.456;2023-02-23T11:56:25;100809.88;;;18.96;42.86
25759;BME280;13604;52.496;13.456;2023-02-23T11:58:54;100805.94;;;19.36;41.37
25759;BME280;13604;52.496;13.456;2023-02-23T12:01:22;100788.91;;;19.09;41.92
25759;BME280;13604;52.496;13.456;2023-02-23T12:03:58;100799.34;;;18.97;42.35
25759;BME280;13604;52.496;13.456;2023-02-23T12:06:33;100793.66;;;16.22;47.20
25759;BME280;13604;52.496;13.456;2023-02-23T12:09:21;100792.44;;;15.73;49.62
25759;BME280;13604;52.496;13.456;2023-02-23T12:11:57;100775.03;;;16.13;49.46
25759;BME280;13604;52.496;13.456;2023-02-23T12:14:36;100793.06;;;16.77;48.23
25759;BME280;13604;52.496;13.456;2023-02-23T12:17:11;100785.44;;;16.89;47.27
25759;BME280;13604;52.496;13.456;2023-02-23T12:19:43;100803.97;;;16.93;47.28
25759;BME280;13604;52.496;13.456;2023-02-23T12:22:17;100792.44;;;17.33;46.30
25759;BME280;13604;52.496;13.456;2023-02-23T12:24:51;100794.94;;;16.41;48.27
25759;BME280;13604;52.496;13.456;2023-02-23T12:27:28;100795.88;;;17.30;47.88
25759;BME280;13604;52.496;13.456;2023-02-23T12:30:14;100789.88;;;16.90;47.65
25759;BME280;13604;52.496;13.456;2023-02-23T12:32:45;100790.25;;;17.57;46.75
25759;BME280;13604;52.496;13.456;2023-02-23T12:35:43;100785.59;;;17.93;45.47
25759;BME280;13604;52.496;13.456;2023-02-23T12:38:25;100788.22;;;17.93;45.44
25759;BME280;13604;52.496;13.456;2023-02-23T12:40:58;100784.53;;;17.83;45.73
25759;BME280;13604;52.496;13.456;2023-02-23T12:43:32;100772.00;;;17.18;46.57
25759;BME280;13604;52.496;13.456;2023-02-23T12:46:13;100788.59;;;16.72;48.03
25759;BME280;13604;52.496;13.456;2023-02-23T12:48:58;100777.09;;;16.26;49.14
25759;BME280;13604;52.496;13.456;2023-02-23T12:51:34;100755.34;;;16.32;49.65
25759;BME280;13604;52.496;13.456;2023-02-23T12:54:01;100769.47;;;16.37;49.64
25759;BME280;13604;52.496;13.456;2023-02-23T12:56:34;100769.59;;;16.05;50.27
25759;BME280;13604;52.496;13.456;2023-02-23T13:02:02;100773.03;;;15.33;52.80
25759;BME280;13604;52.496;13.456;2023-02-23T13:04:55;100771.88;;;14.30;55.38
25759;BME280;13604;52.496;13.456;2023-02-23T13:07:35;100771.44;;;13.88;57.10
25759;BME280;13604;52.496;13.456;2023-02-23T13:10:19;100767.41;;;13.70;57.83
25759;BME280;13604;52.496;13.456;2023-02-23T13:13:14;100772.16;;;13.56;58.65
25759;BME280;13604;52.496;13.456;2023-02-23T13:21:14;100754.34;;;13.72;58.41
25759;BME280;13604;52.496;13.456;2023-02-23T13:26:24;100735.53;;;13.31;60.12
25759;BME280;13604;52.496;13.456;2023-02-23T13:28:56;100751.81;;;13.75;59.26
25759;BME280;13604;52.496;13.456;2023-02-23T13:31:28;100753.06;;;13.33;60.91
25759;BME280;13604;52.496;13.456;2023-02-23T13:33:55;100751.38;;;13.35;60.88
25759;BME280;13604;52.496;13.456;2023-02-23T13:36:21;100752.63;;;13.47;61.33